Time;durP1;ratioP1;P1;durP2;ratioP2;P2;SDS_P1;SDS_P2;PMS_P1;PMS_P2;Temp;Humidity;BMP_temperature;BMP_pressure;BME280_temperature;BME280_humidity;BME280_pressure;Samples;Min_cycle;Max_cycle;Signal;HPM_P1;HPM_P2
2022/04/10 00:00:22;;;;;;;12.43;4.75;;;;;;;0.43;83.82;99496.94;4988467;28;20115;-51
2022/04/10 00:02:47;;;;;;;13.02;5.10;;;;;;;0.43;83.76;99494.31;4988783;28;20023;-52
2022/04/10 00:05:13;;;;;;;10.15;5.07;;;;;;;0.43;83.64;99510.13;4997057;28;20476;-52
2022/04/10 00:07:39;;;;;;;8.50;4.90;;;;;;;0.48;84.15;99496.44;4991900;28;20029;-52
2022/04/10 00:10:04;;;;;;;8.85;5.53;;;;;;;0.49;83.79;99503.34;4990061;28;20042;-50
2022/04/10 00:12:33;;;;;;;8.80;4.75;;;;;;;0.49;83.71;99513.06;4992228;28;20038;-52
2022/04/10 00:14:58;;;;;;;12.35;5.22;;;;;;;0.49;84.18;99513.06;4987202;28;20532;-52
2022/04/10 00:17:24;;;;;;;11.20;5.20;;;;;;;0.49;83.71;99511.25;4993136;28;20093;-53
2022/04/10 00:19:49;;;;;;;14.40;5.28;;;;;;;0.49;83.39;99513.91;4991313;28;20026;-50
2022/04/10 00:22:14;;;;;;;10.82;4.85;;;;;;;0.55;83.63;99510.59;4986271;28;20117;-53
2022/04/10 00:24:40;;;;;;;13.80;5.50;;;;;;;0.51;84.08;99514.56;4986285;28;20070;-51
2022/04/10 00:27:06;;;;;;;12.32;5.60;;;;;;;0.48;84.05;99517.53;4989597;28;20105;-50
2022/04/10 00:29:32;;;;;;;14.18;5.40;;;;;;;0.46;84.38;99503.69;4991164;28;20094;-50
2022/04/10 00:31:57;;;;;;;11.07;5.15;;;;;;;0.50;84.28;99514.72;4998069;28;20510;-53
2022/04/10 00:34:23;;;;;;;8.02;4.57;;;;;;;0.43;83.64;99510.13;4991422;28;20042;-51
2022/04/10 00:36:48;;;;;;;9.65;5.07;;;;;;;0.41;83.37;99506.84;4995711;28;20493;-51
2022/04/10 00:39:13;;;;;;;10.15;4.88;;;;;;;0.47;83.07;99510.59;4993863;28;20038;-50
2022/04/10 00:41:39;;;;;;;10.23;5.50;;;;;;;0.48;83.10;99509.63;4996098;28;20054;-49
2022/04/10 00:44:09;;;;;;;9.73;5.25;;;;;;;0.43;82.92;99514.59;4998507;28;20041;-51
2022/04/10 00:46:35;;;;;;;8.00;5.25;;;;;;;0.50;82.90;99520.84;4995139;28;20794;-50
2022/04/10 00:49:00;;;;;;;12.32;5.13;;;;;;;0.48;82.40;99517.53;5000147;28;20026;-53
2022/04/10 00:51:41;;;;;;;12.63;5.30;;;;;;;0.42;82.86;99518.19;4996592;28;20049;-50
2022/04/10 00:54:14;;;;;;;;;;;;;;;0.33;82.88;99512.16;4976866;28;20031;-50
2022/04/10 00:56:39;;;;;;;9.43;4.60;;;;;;;0.31;83.73;99515.94;4996919;28;20427;-52
2022/04/10 00:59:05;;;;;;;13.57;5.70;;;;;;;0.29;83.14;99521.38;4972691;28;20084;-51
2022/04/10 01:01:30;;;;;;;13.95;5.85;;;;;;;0.32;83.41;99523.66;4997026;28;20049;-50
2022/04/10 01:03:55;;;;;;;12.05;5.10;;;;;;;0.30;83.43;99520.41;5000825;28;20556;-51
2022/04/10 01:06:21;;;;;;;16.65;6.40;;;;;;;0.27;83.64;99522.53;4990724;28;20165;-52
2022/04/10 01:08:47;;;;;;;12.18;5.53;;;;;;;0.30;83.57;99524.81;4993942;28;20444;-53
2022/04/10 01:11:12;;;;;;;13.98;5.75;;;;;;;0.29;83.58;99520.56;4995958;28;20486;-53
2022/04/10 01:13:37;;;;;;;11.90;5.60;;;;;;;0.30;83.70;99528.31;4988841;28;20030;-49
2022/04/10 01:16:03;;;;;;;11.57;5.80;;;;;;;0.34;84.26;99528.78;4988192;28;20054;-54
2022/04/10 01:18:29;;;;;;;13.02;6.18;;;;;;;0.31;83.75;99523.84;4990383;28;20036;-51
2022/04/10 01:20:54;;;;;;;9.80;5.30;;;;;;;0.30;83.50;99530.09;4994182;28;20106;-52
2022/04/10 01:23:20;;;;;;;13.57;5.05;;;;;;;0.28;83.53;99532.09;4990041;28;20038;-50
2022/04/10 01:25:45;;;;;;;11.30;5.28;;;;;;;0.31;83.59;99527.31;4995470;28;20654;-51
2022/04/10 01:28:12;;;;;;;10.98;5.00;;;;;;;0.33;83.63;99533.25;5002261;28;20054;-53
2022/04/10 01:30:37;;;;;;;13.30;5.53;;;;;;;0.33;83.49;99530.59;4992098;28;20108;-52
2022/04/10 01:33:03;;;;;;;10.13;5.22;;;;;;;0.35;82.50;99536.53;4989866;28;20101;-51
2022/04/10 01:35:28;;;;;;;11.13;5.03;;;;;;;0.30;82.77;99538.00;4995351;28;20046;-53
2022/04/10 01:37:54;;;;;;;18.77;5.63;;;;;;;0.30;82.49;99535.38;4991507;28;20026;-52
2022/04/10 01:40:19;;;;;;;13.95;5.25;;;;;;;0.31;82.75;99535.22;4998113;28;20049;-53
2022/04/10 01:42:45;;;;;;;14.23;5.68;;;;;;;0.28;82.48;99532.91;4994444;28;20038;-51
2022/04/10 01:45:10;;;;;;;11.43;5.65;;;;;;;0.32;82.50;99543.94;4997327;28;20081;-51
2022/04/10 01:47:35;;;;;;;18.15;6.13;;;;;;;0.36;82.67;99540.81;4988709;28;20121;-52
2022/04/10 01:50:01;;;;;;;12.23;4.80;;;;;;;0.42;82.97;99544.56;4993337;28;20034;-52
2022/04/10 01:52:27;;;;;;;15.45;4.82;;;;;;;0.39;82.02;99545.72;4998595;28;20087;-53
2022/04/10 01:54:53;;;;;;;12.27;5.03;;;;;;;0.30;82.23;99541.50;4993441;28;20038;-51
2022/04/10 01:57:18;;;;;;;9.35;4.68;;;;;;;0.29;82.88;99544.28;4992329;28;20129;-54
2022/04/10 01:59:44;;;;;;;13.68;5.75;;;;;;;0.30;82.44;99548.56;4988339;28;20037;-53
2022/04/10 02:02:09;;;;;;;13.23;5.38;;;;;;;0.27;82.02;99540.97;4992844;28;20043;-53
2022/04/10 02:04:34;;;;;;;9.63;5.20;;;;;;;0.32;82.26;99541.31;4995149;28;20046;-52
2022/04/10 02:07:00;;;;;;;13.80;5.30;;;;;;;0.31;81.99;99542.31;4975988;28;20404;-51
2022/04/10 02:09:25;;;;;;;11.35;4.55;;;;;;;0.31;82.15;99537.03;4990770;28;20040;-50
2022/04/10 02:11:51;;;;;;;12.77;5.50;;;;;;;0.33;83.96;99535.88;4995373;28;20105;-51
2022/04/10 02:14:16;;;;;;;12.23;5.47;;;;;;;0.28;82.37;99537.38;4991891;28;20034;-52
2022/04/10 02:16:41;;;;;;;13.75;5.10;;;;;;;0.33;82.67;99529.78;4989123;28;20035;-51
2022/04/10 02:19:07;;;;;;;11.75;5.15;;;;;;;0.35;83.20;99522.50;5003858;28;20127;-49
2022/04/10 02:21:32;;;;;;;9.27;4.85;;;;;;;0.31;81.86;99526.50;4995053;28;20424;-50
2022/04/10 02:23:58;;;;;;;10.77;4.75;;;;;;;0.31;82.37;99518.56;4991160;28;20065;-49
2022/04/10 02:26:23;;;;;;;10.70;5.25;;;;;;;0.28;81.09;99518.91;4988609;28;20046;-49
2022/04/10 02:28:49;;;;;;;9.55;4.70;;;;;;;0.27;81.15;99519.91;4994064;28;20061;-52
2022/04/10 02:31:14;;;;;;;9.65;4.60;;;;;;;0.21;81.46;99522.22;4988832;28;20066;-50
2022/04/10 02:33:39;;;;;;;11.52;4.35;;;;;;;0.19;81.25;99528.66;4997929;28;20034;-49
2022/04/10 02:36:05;;;;;;;12.57;4.80;;;;;;;0.22;81.65;99528.31;4991335;28;20042;-51
2022/04/10 02:38:32;;;;;;;9.32;4.63;;;;;;;0.17;81.38;99533.25;4996667;28;20104;-52
2022/04/10 02:40:57;;;;;;;9.98;5.45;;;;;;;0.11;81.08;99540.03;4994465;28;20062;-53
2022/04/10 02:43:23;;;;;;;16.58;4.80;;;;;;;0.13;81.53;99545.97;4988949;28;20037;-52
2022/04/10 02:45:48;;;;;;;11.40;4.70;;;;;;;0.05;81.33;99553.03;4987804;28;20396;-51
2022/04/10 02:48:13;;;;;;;12.98;4.97;;;;;;;0.07;81.48;99546.63;4989073;28;20030;-50
2022/04/10 02:50:39;;;;;;;7.72;4.70;;;;;;;0.10;81.74;99556.84;4996217;28;20137;-52
2022/04/10 02:53:05;;;;;;;13.27;4.65;;;;;;;0.14;81.49;99547.59;5003613;28;20526;-50
2022/04/10 02:55:30;;;;;;;14.70;4.85;;;;;;;0.21;81.87;99550.41;4992314;28;20405;-50
2022/04/10 02:57:56;;;;;;;16.92;5.28;;;;;;;0.32;80.60;99550.03;5000117;28;20400;-50
2022/04/10 03:00:21;;;;;;;17.23;5.55;;;;;;;0.33;80.34;99556.16;4992617;28;20532;-50
2022/04/10 03:02:47;;;;;;;10.13;4.78;;;;;;;0.40;80.22;99557.09;4988865;28;20029;-53
2022/04/10 03:05:12;;;;;;;12.65;4.75;;;;;;;0.39;79.73;99550.19;4987845;28;20022;-53
2022/04/10 03:07:37;;;;;;;13.25;4.65;;;;;;;0.36;80.06;99550.53;4997711;28;20018;-50
2022/04/10 03:10:03;;;;;;;12.73;4.93;;;;;;;0.33;80.77;99556.97;4993409;28;20030;-52
2022/04/10 03:12:29;;;;;;;9.40;4.47;;;;;;;0.28;80.46;99561.09;4992723;28;20094;-52
2022/04/10 03:14:54;;;;;;;7.68;4.78;;;;;;;0.31;81.58;99564.22;4997084;28;20692;-51
2022/04/10 03:17:20;;;;;;;10.18;5.15;;;;;;;0.18;81.34;99558.66;4997553;28;20069;-51
2022/04/10 03:19:45;;;;;;;17.38;5.28;;;;;;;0.11;81.33;99566.38;4988528;28;20540;-51
2022/04/10 03:22:11;;;;;;;12.45;4.90;;;;;;;0.12;81.92;99570.66;4997082;28;20038;-52
2022/04/10 03:24:36;;;;;;;12.65;4.70;;;;;;;0.16;82.21;99569.34;4988646;28;20034;-49
2022/04/10 03:27:01;;;;;;;11.65;4.88;;;;;;;0.17;82.27;99563.06;4993589;28;20459;-49
2022/04/10 03:29:27;;;;;;;11.88;5.18;;;;;;;0.21;83.59;99561.75;4987624;28;20489;-50
2022/04/10 03:31:52;;;;;;;10.50;5.30;;;;;;;0.17;82.68;99570.97;4999970;28;20046;-51
2022/04/10 03:34:18;;;;;;;12.98;5.63;;;;;;;0.18;83.03;99574.47;4992180;28;20030;-51
2022/04/10 03:36:43;;;;;;;10.73;4.78;;;;;;;0.18;83.42;99579.75;4991121;28;20097;-53
2022/04/10 03:39:08;;;;;;;13.15;5.55;;;;;;;0.20;83.46;99583.00;4994885;28;20030;-52
2022/04/10 03:41:34;;;;;;;13.00;5.13;;;;;;;0.26;83.41;99571.81;4986303;28;20057;-49
2022/04/10 03:43:59;;;;;;;10.65;4.65;;;;;;;0.39;82.79;99576.56;4995189;28;20440;-51
2022/04/10 03:46:25;;;;;;;21.75;6.00;;;;;;;0.46;82.29;99577.53;4993147;28;20050;-51
2022/04/10 03:48:50;;;;;;;11.80;5.57;;;;;;;0.55;82.01;99584.44;4987963;28;20499;-49
2022/04/10 03:51:16;;;;;;;16.05;5.20;;;;;;;0.58;82.36;99580.66;4993787;28;20046;-51
2022/04/10 03:53:41;;;;;;;10.10;5.13;;;;;;;0.59;81.47;99579.66;4995684;28;20026;-49
2022/04/10 03:56:06;;;;;;;10.10;5.22;;;;;;;0.60;81.64;99590.03;4992759;28;20050;-48
2022/04/10 03:58:32;;;;;;;12.93;5.13;;;;;;;0.60;81.47;99591.81;4993752;28;20041;-50
2022/04/10 04:00:58;;;;;;;13.95;5.43;;;;;;;0.67;81.94;99599.91;4987558;28;20634;-52
2022/04/10 04:03:23;;;;;;;19.30;5.53;;;;;;;0.67;81.85;99602.53;4999486;28;20023;-50
2022/04/10 04:05:49;;;;;;;13.88;5.70;;;;;;;0.71;81.53;99603.84;4991516;28;20045;-49
2022/04/10 04:08:15;;;;;;;15.95;6.40;;;;;;;0.73;81.43;99613.25;5000617;28;20026;-51
2022/04/10 04:10:41;;;;;;;14.07;5.85;;;;;;;0.74;81.85;99616.69;4994431;28;20042;-52
2022/04/10 04:13:06;;;;;;;20.25;7.05;;;;;;;0.80;81.94;99613.38;4999314;28;20057;-50
2022/04/10 04:15:32;;;;;;;11.25;5.82;;;;;;;0.82;81.57;99614.03;4994590;28;20120;-51
2022/04/10 04:17:57;;;;;;;11.23;5.80;;;;;;;0.83;81.90;99620.97;4991492;28;20551;-49
2022/04/10 04:20:22;;;;;;;11.90;5.90;;;;;;;0.88;81.76;99618.66;4993657;28;20046;-51
2022/04/10 04:22:48;;;;;;;15.75;5.78;;;;;;;0.88;81.73;99618.66;4992205;28;20445;-52
2022/04/10 04:25:14;;;;;;;12.52;6.00;;;;;;;0.94;81.78;99623.22;4991268;28;20547;-51
2022/04/10 04:27:39;;;;;;;15.98;5.57;;;;;;;1.00;82.45;99614.66;4989755;28;20360;-50
2022/04/10 04:30:06;;;;;;;20.30;6.25;;;;;;;0.97;82.02;99622.88;4992819;28;20034;-52
2022/04/10 04:32:31;;;;;;;22.25;6.78;;;;;;;0.95;82.19;99619.63;4998708;28;20041;-49
2022/04/10 04:34:56;;;;;;;8.93;5.20;;;;;;;1.03;81.66;99614.28;4994229;28;20046;-52
2022/04/10 04:37:22;;;;;;;13.75;5.82;;;;;;;1.05;81.70;99614.94;4998202;28;20074;-50
2022/04/10 04:39:47;;;;;;;14.00;6.10;;;;;;;1.11;81.98;99626.63;5008376;28;20033;-49
2022/04/10 04:42:13;;;;;;;16.05;6.18;;;;;;;1.11;81.58;99625.81;4990892;28;20389;-50
2022/04/10 04:44:38;;;;;;;13.18;6.70;;;;;;;1.13;82.07;99629.94;4999369;28;20065;-53
2022/04/10 04:47:04;;;;;;;13.68;6.68;;;;;;;1.15;82.08;99624.47;5001025;28;20050;-50
2022/04/10 04:49:29;;;;;;;18.73;6.43;;;;;;;1.19;81.61;99636.34;4996641;28;20516;-52
2022/04/10 04:51:55;;;;;;;14.05;6.68;;;;;;;1.24;81.40;99644.56;4997168;28;20042;-50
2022/04/10 04:54:20;;;;;;;13.98;6.50;;;;;;;1.20;81.39;99627.41;4996656;28;20038;-49
2022/04/10 04:56:45;;;;;;;14.65;6.35;;;;;;;1.26;80.99;99638.13;4990499;28;20093;-52
2022/04/10 04:59:14;;;;;;;16.52;6.30;;;;;;;1.26;80.93;99638.13;4995801;28;20053;-49
2022/04/10 05:01:43;;;;;;;16.90;6.60;;;;;;;1.37;80.42;99644.81;4990369;28;20462;-52
2022/04/10 05:04:09;;;;;;;10.52;4.72;;;;;;;1.06;81.96;99650.91;4999834;28;20042;-48
2022/04/10 05:06:34;;;;;;;16.17;6.95;;;;;;;0.90;83.27;99658.03;4994586;28;20053;-49
2022/04/10 05:09:00;;;;;;;11.40;5.97;;;;;;;0.90;84.15;99661.53;5003761;28;20046;-51
2022/04/10 05:11:25;;;;;;;10.93;6.40;;;;;;;1.07;82.59;99660.50;4990615;28;20054;-53
2022/04/10 05:13:51;;;;;;;14.60;5.82;;;;;;;1.24;81.69;99661.22;4994112;28;20487;-50
2022/04/10 05:16:16;;;;;;;17.98;6.13;;;;;;;1.40;81.08;99665.63;4997460;28;20046;-52
2022/04/10 05:18:42;;;;;;;18.02;6.60;;;;;;;1.43;80.71;99662.66;4991968;28;20034;-52
2022/04/10 05:21:07;;;;;;;12.63;6.30;;;;;;;1.42;80.50;99674.22;4995507;28;20042;-53
2022/04/10 05:23:33;;;;;;;18.25;6.00;;;;;;;1.25;82.17;99680.56;4998775;28;20034;-53
2022/04/10 05:25:58;;;;;;;14.20;6.47;;;;;;;1.37;81.47;99676.53;5006397;28;20065;-51
2022/04/10 05:28:24;;;;;;;19.70;7.30;;;;;;;1.51;80.78;99696.94;5005051;28;20412;-50
2022/04/10 05:30:49;;;;;;;17.63;6.78;;;;;;;1.53;80.86;99698.59;5002425;28;20180;-48
2022/04/10 05:33:14;;;;;;;13.70;6.07;;;;;;;1.55;80.72;99693.94;5000918;28;20034;-50
2022/04/10 05:35:40;;;;;;;13.45;6.65;;;;;;;1.20;83.19;99690.78;4990939;28;20536;-52
2022/04/10 05:38:05;;;;;;;20.45;7.60;;;;;;;0.96;84.68;99700.44;4992075;28;20037;-51
2022/04/10 05:40:31;;;;;;;14.48;7.53;;;;;;;0.68;86.89;99694.72;4994831;28;20057;-50
2022/04/10 05:42:56;;;;;;;25.98;8.35;;;;;;;0.63;87.99;99694.41;4994759;28;20476;-49
2022/04/10 05:45:21;;;;;;;17.23;7.80;;;;;;;0.76;87.82;99697.34;4996714;28;20054;-51
2022/04/10 05:47:47;;;;;;;15.38;6.85;;;;;;;0.83;87.76;99700.97;4999424;28;20042;-50
2022/04/10 05:50:13;;;;;;;14.40;7.80;;;;;;;0.97;87.81;99693.34;4995992;28;20038;-52
2022/04/10 05:52:38;;;;;;;18.10;7.70;;;;;;;1.10;87.44;99695.44;4996641;28;20045;-51
2022/04/10 05:55:05;;;;;;;11.95;6.55;;;;;;;1.33;86.90;99691.09;4994739;28;20072;-51
2022/04/10 05:57:30;;;;;;;14.68;7.15;;;;;;;1.53;87.33;99682.75;5002539;28;20048;-49
2022/04/10 05:59:56;;;;;;;18.23;7.50;;;;;;;1.65;86.72;99697.22;5005142;28;20034;-49
2022/04/10 06:02:21;;;;;;;16.08;6.15;;;;;;;1.78;87.51;99705.41;5000599;28;20053;-49
2022/04/10 06:04:47;;;;;;;15.48;7.00;;;;;;;2.23;86.06;99709.06;5001698;28;20045;-50
2022/04/10 06:07:12;;;;;;;15.18;6.50;;;;;;;2.66;84.22;99714.69;5002110;28;20045;-51
2022/04/10 06:09:37;;;;;;;15.85;7.55;;;;;;;2.37;85.43;99721.53;5001889;28;20038;-51
2022/04/10 06:12:03;;;;;;;13.57;6.43;;;;;;;2.17;85.37;99709.75;5002299;28;20038;-54
2022/04/10 06:14:28;;;;;;;14.00;6.22;;;;;;;2.15;85.92;99712.59;5000741;28;20547;-54
2022/04/10 06:16:54;;;;;;;14.70;6.00;;;;;;;2.44;86.16;99720.81;4988425;28;20053;-53
2022/04/10 06:19:19;;;;;;;17.52;6.82;;;;;;;1.92;86.26;99731.09;5001442;28;20042;-53
2022/04/10 06:21:45;;;;;;;20.35;7.10;;;;;;;1.76;88.61;99725.88;4996508;28;20054;-50
2022/04/10 06:24:10;;;;;;;19.00;8.10;;;;;;;1.69;89.58;99727.56;4998646;28;20036;-53
2022/04/10 06:26:36;;;;;;;20.23;8.55;;;;;;;1.64;89.79;99727.28;5003815;28;20092;-52
2022/04/10 06:29:01;;;;;;;19.20;9.65;;;;;;;1.54;89.67;99734.59;4993504;28;20721;-50
2022/04/10 06:31:27;;;;;;;21.40;8.80;;;;;;;1.38;91.02;99719.63;4988979;28;20133;-51
2022/04/10 06:33:54;;;;;;;19.55;8.63;;;;;;;1.27;92.16;99726.94;4992960;28;20026;-51
2022/04/10 06:36:19;;;;;;;16.83;7.60;;;;;;;1.21;91.95;99724.13;4992561;28;20050;-54
2022/04/10 06:38:45;;;;;;;17.20;8.32;;;;;;;1.32;92.43;99731.69;4997144;28;20084;-50
2022/04/10 06:41:10;;;;;;;19.33;9.48;;;;;;;1.62;91.93;99750.41;4994629;28;20509;-52
2022/04/10 06:43:36;;;;;;;23.20;11.18;;;;;;;1.73;91.29;99750.03;4993315;28;20041;-52
2022/04/10 06:46:01;;;;;;;22.50;11.15;;;;;;;1.44;91.89;99751.44;5000576;28;20050;-54
2022/04/10 06:48:26;;;;;;;22.17;11.38;;;;;;;1.57;90.82;99752.72;5001844;28;20030;-53
2022/04/10 06:50:52;;;;;;;20.60;10.82;;;;;;;1.84;90.55;99756.75;4999548;28;20046;-53
2022/04/10 06:53:17;;;;;;;19.42;7.85;;;;;;;1.40;90.56;99750.16;4998088;28;20044;-54
2022/04/10 06:55:43;;;;;;;17.50;10.82;;;;;;;1.36;91.23;99761.22;4991589;28;20378;-54
2022/04/10 06:58:10;;;;;;;15.82;7.43;;;;;;;1.34;91.29;99761.38;4986958;28;20497;-51
2022/04/10 07:00:36;;;;;;;21.40;10.05;;;;;;;1.55;91.77;99757.34;5000410;28;20042;-53
2022/04/10 07:03:01;;;;;;;23.95;10.82;;;;;;;1.64;91.49;99756.34;4992641;28;20030;-54
2022/04/10 07:05:27;;;;;;;24.58;11.10;;;;;;;1.85;90.27;99759.22;4996241;28;20054;-52
2022/04/10 07:07:53;;;;;;;28.75;11.85;;;;;;;1.92;90.15;99757.53;4993860;28;20034;-52
2022/04/10 07:10:19;;;;;;;22.63;9.90;;;;;;;1.96;90.70;99759.81;4987954;28;20598;-54
2022/04/10 07:12:45;;;;;;;23.98;11.20;;;;;;;1.98;89.52;99758.66;4997187;28;20038;-51
2022/04/10 07:15:10;;;;;;;27.08;10.50;;;;;;;2.13;90.28;99756.09;4992248;28;20053;-52
2022/04/10 07:17:36;;;;;;;23.55;10.23;;;;;;;2.06;90.15;99760.44;4989751;28;20465;-52
2022/04/10 07:20:01;;;;;;;25.70;11.27;;;;;;;2.09;90.58;99760.06;4992839;28;20190;-50
2022/04/10 07:25:11;;;;;;;22.90;11.45;;;;;;;2.58;90.54;99759.75;4992805;28;20097;-51
2022/04/10 07:27:36;;;;;;;25.27;11.65;;;;;;;2.67;90.38;99756.03;4986790;28;20022;-53
2022/04/10 07:30:02;;;;;;;23.50;10.25;;;;;;;2.94;88.64;99753.81;4991199;28;20054;-52
2022/04/10 07:32:27;;;;;;;22.35;10.73;;;;;;;2.88;87.43;99759.84;4990667;28;20336;-53
2022/04/10 07:34:53;;;;;;;20.95;11.23;;;;;;;2.97;87.18;99766.66;4990006;28;20070;-53
2022/04/10 07:37:18;;;;;;;13.90;7.80;;;;;;;2.71;87.22;99759.97;4997326;28;20045;-54
2022/04/10 07:39:44;;;;;;;21.25;9.63;;;;;;;2.96;86.96;99765.03;5001538;28;20017;-51
2022/04/10 07:42:10;;;;;;;23.70;10.55;;;;;;;3.02;86.18;99769.59;4998262;28;20038;-52
2022/04/10 07:44:35;;;;;;;18.38;10.05;;;;;;;3.11;86.55;99776.47;4992987;28;20397;-54
2022/04/10 07:49:45;;;;;;;18.85;9.75;;;;;;;3.32;86.47;99785.53;4988007;28;20512;-54
2022/04/10 07:52:10;;;;;;;26.67;10.48;;;;;;;3.44;85.41;99786.72;5000801;28;20038;-53
2022/04/10 07:54:36;;;;;;;20.20;10.32;;;;;;;3.51;84.63;99790.31;5002724;28;20034;-52
2022/04/10 07:57:03;;;;;;;17.83;8.60;;;;;;;3.67;84.79;99781.38;5001127;28;20042;-52
2022/04/10 07:59:28;;;;;;;18.25;9.05;;;;;;;3.10;85.56;99795.22;5003455;28;20540;-54
2022/04/10 08:01:53;;;;;;;17.17;8.50;;;;;;;3.61;84.95;99801.44;4998631;28;20053;-54
2022/04/10 08:04:19;;;;;;;21.48;10.18;;;;;;;4.13;83.18;99806.81;5002322;28;20461;-51
2022/04/10 08:06:44;;;;;;;19.38;9.80;;;;;;;4.34;81.03;99804.16;4998662;28;20143;-52
2022/04/10 08:09:10;;;;;;;28.42;9.55;;;;;;;4.57;81.19;99797.88;5002866;28;20439;-52
2022/04/10 08:11:35;;;;;;;19.38;9.13;;;;;;;4.98;78.30;99798.84;4998146;28;20066;-51
2022/04/10 08:14:01;;;;;;;14.70;8.18;;;;;;;5.08;78.42;99800.38;4994078;28;20034;-54
2022/04/10 08:16:26;;;;;;;28.95;9.40;;;;;;;5.51;76.68;99805.56;4999740;28;20050;-51
2022/04/10 08:18:52;;;;;;;19.90;9.27;;;;;;;5.34;76.96;99807.69;4995822;28;20033;-50
2022/04/10 08:21:18;;;;;;;16.30;9.32;;;;;;;5.34;76.96;99800.56;5003553;28;20042;-52
2022/04/10 08:23:43;;;;;;;15.35;8.57;;;;;;;6.56;73.94;99812.38;4999661;28;20040;-53
2022/04/10 08:26:09;;;;;;;17.38;9.23;;;;;;;6.81;72.46;99817.13;4994617;28;20042;-52
2022/04/10 08:28:35;;;;;;;18.10;9.68;;;;;;;5.97;73.65;99813.03;4997523;28;20412;-52
2022/04/10 08:31:00;;;;;;;16.75;9.00;;;;;;;7.05;71.39;99813.88;4997598;28;20049;-53
2022/04/10 08:33:26;;;;;;;15.90;9.27;;;;;;;6.98;71.96;99820.22;4996120;28;20065;-51
2022/04/10 08:35:51;;;;;;;24.13;8.85;;;;;;;6.18;73.13;99812.88;4993937;28;20162;-50
2022/04/10 08:38:16;;;;;;;16.27;8.40;;;;;;;5.62;74.48;99819.16;5002323;28;20037;-53
2022/04/10 08:40:42;;;;;;;20.40;10.48;;;;;;;7.10;70.68;99815.91;4995246;28;20503;-54
2022/04/10 08:43:08;;;;;;;16.50;9.43;;;;;;;6.46;73.15;99812.78;4977365;28;20033;-53
2022/04/10 08:45:33;;;;;;;18.20;9.60;;;;;;;7.13;71.38;99818.97;4992848;28;20038;-52
2022/04/10 08:47:59;;;;;;;17.30;9.30;;;;;;;8.45;63.67;99828.72;5001398;28;20475;-52
2022/04/10 08:50:26;;;;;;;13.05;7.70;;;;;;;8.30;65.10;99826.31;4990233;28;20114;-53
2022/04/10 08:52:54;;;;;;;16.13;8.30;;;;;;;8.28;65.95;99826.50;4997901;28;20397;-50
2022/04/10 08:55:20;;;;;;;16.48;9.00;;;;;;;9.31;62.60;99832.63;4996330;28;20042;-53
2022/04/10 08:57:45;;;;;;;19.50;9.13;;;;;;;9.64;61.54;99829.66;4991532;28;20374;-53
2022/04/10 09:00:11;;;;;;;21.92;10.55;;;;;;;8.76;63.10;99835.94;4994679;28;20053;-50
2022/04/10 09:02:55;;;;;;;17.80;8.45;;;;;;;8.50;65.89;99831.56;4995918;28;20508;-50
2022/04/10 09:05:21;;;;;;;17.25;8.70;;;;;;;7.73;67.37;99826.91;4988760;28;20719;-51
2022/04/10 09:08:12;;;;;;;19.80;10.15;;;;;;;7.68;67.03;99844.56;4997938;28;20040;-51
2022/04/10 09:11:00;;;;;;;18.65;10.18;;;;;;;8.99;63.98;99840.72;4989854;28;20061;-53
2022/04/10 09:13:28;;;;;;;13.95;9.38;;;;;;;7.53;67.84;99831.47;4993810;28;20037;-50
2022/04/10 09:16:01;;;;;;;17.40;7.60;;;;;;;6.71;70.53;99833.50;4997715;28;20042;-53
2022/04/10 09:18:26;;;;;;;17.48;9.73;;;;;;;8.61;67.71;99845.09;4991187;28;20560;-52
2022/04/10 09:21:06;;;;;;;19.88;9.75;;;;;;;8.03;65.78;99833.59;4993583;28;20070;-49
2022/04/10 09:23:31;;;;;;;16.80;9.82;;;;;;;7.24;68.06;99838.91;4989994;28;20037;-51
2022/04/10 09:25:57;;;;;;;15.95;8.68;;;;;;;7.64;66.45;99838.84;4999814;28;20450;-51
2022/04/10 09:28:42;;;;;;;20.00;9.52;;;;;;;9.27;63.74;99838.44;4996832;28;20046;-50
2022/04/10 09:31:30;;;;;;;18.27;9.32;;;;;;;7.40;65.68;99831.50;4992694;28;20061;-49
2022/04/10 09:33:56;;;;;;;16.88;9.30;;;;;;;6.84;70.56;99844.19;4990426;28;20696;-50
2022/04/10 09:36:36;;;;;;;28.30;9.88;;;;;;;7.47;69.67;99833.13;4990188;28;20454;-52
2022/04/10 09:39:03;;;;;;;16.45;10.07;;;;;;;7.83;67.07;99829.13;4999261;28;20022;-52
2022/04/10 09:41:29;;;;;;;18.92;9.48;;;;;;;7.96;63.30;99831.78;5000688;28;20128;-53
2022/04/10 09:43:59;;;;;;;21.65;9.65;;;;;;;7.67;66.17;99830.44;5002033;28;20037;-52
2022/04/10 09:46:24;;;;;;;17.63;10.68;;;;;;;8.73;63.54;99831.84;4996623;28;20039;-50
2022/04/10 09:48:50;;;;;;;18.42;9.93;;;;;;;8.52;64.49;99834.88;5000354;28;20096;-52
2022/04/10 09:51:15;;;;;;;23.20;11.02;;;;;;;8.34;67.00;99827.53;4989187;28;20057;-52
2022/04/10 09:53:41;;;;;;;21.75;10.15;;;;;;;8.39;63.51;99831.22;4992742;28;20060;-52
2022/04/10 09:56:07;;;;;;;21.17;9.13;;;;;;;8.21;61.22;99825.72;4989769;28;20049;-51
2022/04/10 09:58:33;;;;;;;17.27;9.75;;;;;;;8.99;61.98;99824.69;5004103;28;20117;-53
2022/04/10 10:00:59;;;;;;;18.38;10.48;;;;;;;8.46;63.11;99814.31;4988471;28;20042;-56
2022/04/10 10:03:28;;;;;;;20.08;10.25;;;;;;;7.17;66.59;99819.41;4991688;28;20037;-50
2022/04/10 10:05:55;;;;;;;18.70;9.00;;;;;;;7.34;67.14;99822.47;4994295;28;20066;-53
2022/04/10 10:08:22;;;;;;;22.23;10.90;;;;;;;7.17;67.50;99814.06;4995488;28;20054;-50
2022/04/10 10:10:47;;;;;;;17.67;9.15;;;;;;;6.37;70.61;99816.66;4991661;28;20163;-52
2022/04/10 10:13:13;;;;;;;21.88;11.70;;;;;;;7.17;69.03;99811.41;4989880;28;20486;-53
2022/04/10 10:15:39;;;;;;;22.88;10.25;;;;;;;7.16;69.56;99822.28;4989146;28;20141;-52
2022/04/10 10:18:06;;;;;;;21.17;10.95;;;;;;;7.29;67.02;99822.28;4996041;28;20563;-49
2022/04/10 10:20:32;;;;;;;21.20;10.00;;;;;;;7.22;67.77;99808.13;4992186;28;20130;-53
2022/04/10 10:23:00;;;;;;;18.20;9.95;;;;;;;7.11;66.58;99815.72;4998186;28;20618;-54
2022/04/10 10:25:58;;;;;;;22.58;11.23;;;;;;;7.84;64.69;99806.78;4998004;28;20046;-52
2022/04/10 10:28:26;;;;;;;19.92;10.32;;;;;;;7.78;65.44;99815.59;4989037;28;20133;-54
2022/04/10 10:30:54;;;;;;;18.77;9.27;;;;;;;6.82;66.45;99824.94;4994696;28;20479;-53
2022/04/10 10:33:22;;;;;;;17.30;9.15;;;;;;;6.52;67.42;99813.00;4989648;28;20026;-52
2022/04/10 10:35:52;;;;;;;16.15;9.77;;;;;;;7.31;66.76;99809.53;4993007;28;20404;-52
2022/04/10 10:38:29;;;;;;;19.17;10.20;;;;;;;7.08;67.03;99808.13;4996557;28;20754;-54
2022/04/10 10:41:16;;;;;;;28.05;10.65;;;;;;;7.58;66.94;99813.00;4989126;28;20124;-53
2022/04/10 10:43:42;;;;;;;22.42;10.63;;;;;;;7.85;64.70;99812.94;4994562;28;20041;-55
2022/04/10 10:46:28;;;;;;;21.27;10.13;;;;;;;7.96;65.52;99818.44;4977552;28;20054;-51
2022/04/10 10:49:19;;;;;;;16.55;10.20;;;;;;;8.26;63.21;99820.56;4988385;28;20393;-53
2022/04/10 10:51:48;;;;;;;22.52;11.57;;;;;;;9.61;61.20;99817.56;4990266;28;20502;-54
2022/04/10 10:54:21;;;;;;;18.17;9.52;;;;;;;8.45;62.07;99812.69;4989743;28;20045;-52
2022/04/10 10:56:47;;;;;;;17.33;10.10;;;;;;;8.32;63.35;99809.03;4993187;28;20043;-52
2022/04/10 10:59:22;;;;;;;16.98;8.95;;;;;;;9.21;59.94;99809.91;4998152;28;20076;-55
2022/04/10 11:02:11;;;;;;;22.02;9.43;;;;;;;10.35;54.59;99809.50;4998715;28;20040;-54
2022/04/10 11:04:41;;;;;;;17.98;9.55;;;;;;;10.91;54.70;99805.59;4990937;28;20096;-50
2022/04/10 11:07:18;;;;;;;22.35;9.32;;;;;;;10.44;55.16;99799.28;4987878;28;20038;-52
2022/04/10 11:09:53;;;;;;;18.77;8.63;;;;;;;8.44;57.85;99801.19;4994977;28;20103;-54
2022/04/10 11:12:21;;;;;;;18.70;9.38;;;;;;;9.02;59.70;99801.00;4998470;28;20046;-54
2022/04/10 11:14:50;;;;;;;18.83;8.85;;;;;;;8.74;59.58;99796.06;4995962;28;20068;-54
2022/04/10 11:17:19;;;;;;;18.97;9.20;;;;;;;7.90;60.12;99797.09;4987509;28;20159;-51
2022/04/10 11:20:09;;;;;;;16.77;9.20;;;;;;;7.67;62.67;99790.41;4991602;28;20373;-54
2022/04/10 11:22:37;;;;;;;16.48;8.75;;;;;;;7.98;63.00;99792.34;4988564;28;20119;-51
2022/04/10 11:25:07;;;;;;;17.13;9.13;;;;;;;6.78;62.87;99796.22;4996660;28;20041;-54
2022/04/10 11:27:53;;;;;;;18.08;8.85;;;;;;;7.77;61.96;99795.31;4988034;28;20038;-52
2022/04/10 11:30:28;;;;;;;15.55;7.85;;;;;;;7.41;62.57;99801.94;4987393;28;20122;-52
2022/04/10 11:32:56;;;;;;;15.30;7.43;;;;;;;6.97;63.17;99797.28;4994073;28;20036;-52
2022/04/10 11:35:29;;;;;;;19.52;9.02;;;;;;;7.39;60.28;99795.16;4994346;28;20563;-53